Time;durP1;ratioP1;P1;durP2;ratioP2;P2;SDS_P1;SDS_P2;PMS_P1;PMS_P2;Temp;Humidity;BMP_temperature;BMP_pressure;BME280_temperature;BME280_humidity;BME280_pressure;Samples;Min_cycle;Max_cycle;Signal;HPM_P1;HPM_P2
2023/04/26 00:02:04;;;;;;;2.80;1.98;;;;;;;13.85;63.10;101899.84;5026249;28;20032;-56
2023/04/26 00:04:30;;;;;;;2.33;1.77;;;;;;;13.85;62.80;101899.00;5025725;28;20122;-56
2023/04/26 00:06:55;;;;;;;3.65;2.05;;;;;;;13.84;62.81;101892.78;5028954;28;20025;-56
2023/04/26 00:09:21;;;;;;;3.67;2.00;;;;;;;13.84;62.64;101889.22;5030732;28;20087;-56
2023/04/26 00:11:46;;;;;;;2.15;1.95;;;;;;;13.84;62.67;101894.59;5025407;28;20029;-56
2023/04/26 00:14:12;;;;;;;3.38;1.92;;;;;;;13.84;62.97;101892.78;5025950;28;20460;-56
2023/04/26 00:16:37;;;;;;;3.97;2.00;;;;;;;13.83;62.88;101895.56;5011655;28;20038;-56
2023/04/26 00:19:03;;;;;;;2.20;1.75;;;;;;;13.82;62.62;101897.38;5029449;28;20037;-56
2023/04/26 00:21:29;;;;;;;3.05;2.00;;;;;;;13.82;62.72;101891.13;5026045;28;20534;-56
2023/04/26 00:23:54;;;;;;;3.25;1.90;;;;;;;13.83;62.68;101892.88;5029635;28;20044;-56
2023/04/26 00:26:20;;;;;;;3.35;2.03;;;;;;;13.82;62.65;101899.16;5028595;28;20053;-56
2023/04/26 00:28:45;;;;;;;3.95;2.53;;;;;;;13.81;62.99;101892.97;5028734;28;20091;-56
2023/04/26 00:31:17;;;;;;;3.88;1.70;;;;;;;13.81;62.67;101887.59;5025715;28;20075;-57
2023/04/26 00:33:43;;;;;;;2.20;1.67;;;;;;;13.80;62.57;101891.25;5026123;28;20049;-56
2023/04/26 00:36:09;;;;;;;3.58;1.75;;;;;;;13.81;62.42;101894.78;5025129;28;20040;-56
2023/04/26 00:38:34;;;;;;;5.32;2.22;;;;;;;13.80;62.85;101891.25;5026496;28;20465;-56
2023/04/26 00:41:00;;;;;;;3.00;1.85;;;;;;;13.79;62.36;101894.88;5023952;28;20033;-56
2023/04/26 00:43:25;;;;;;;3.50;1.98;;;;;;;13.80;62.53;101898.41;5008515;28;20539;-56
2023/04/26 00:45:51;;;;;;;3.53;2.30;;;;;;;13.79;62.86;101904.72;5007251;28;20472;-56
2023/04/26 00:48:17;;;;;;;3.85;1.50;;;;;;;13.78;62.62;101898.50;5025113;28;20520;-56
2023/04/26 00:50:43;;;;;;;2.22;1.65;;;;;;;13.78;62.58;101889.59;5025406;28;20088;-56
2023/04/26 00:53:09;;;;;;;1.85;1.60;;;;;;;13.77;62.52;101894.09;5024791;28;20134;-57
2023/04/26 00:55:35;;;;;;;2.22;1.95;;;;;;;13.77;62.32;101901.28;5025953;28;20040;-56
2023/04/26 00:58:01;;;;;;;3.58;2.15;;;;;;;13.76;62.61;101889.69;5030614;28;20037;-56
2023/04/26 01:00:26;;;;;;;3.13;1.80;;;;;;;13.77;62.25;101893.25;5035382;28;20364;-56
2023/04/26 01:02:52;;;;;;;4.40;1.83;;;;;;;13.76;62.71;101894.19;5025892;28;20054;-56
2023/04/26 01:05:17;;;;;;;3.58;1.80;;;;;;;13.76;62.42;101889.69;5028058;28;20132;-56
2023/04/26 01:07:43;;;;;;;3.55;1.95;;;;;;;13.75;62.17;101884.47;5029361;28;20045;-56
2023/04/26 01:10:09;;;;;;;3.22;2.15;;;;;;;13.76;62.22;101888.84;5037542;28;20041;-56
2023/04/26 01:12:36;;;;;;;4.07;1.83;;;;;;;13.74;61.94;101888.06;5030038;28;20388;-56
2023/04/26 01:15:02;;;;;;;3.25;2.05;;;;;;;13.74;62.34;101890.75;5033340;28;20045;-56
2023/04/26 01:17:28;;;;;;;1.90;1.67;;;;;;;13.73;62.51;101895.25;5028965;28;20037;-56
2023/04/26 01:19:54;;;;;;;1.73;1.40;;;;;;;13.73;62.08;101899.72;5029254;28;20037;-56
2023/04/26 01:22:20;;;;;;;3.35;1.80;;;;;;;13.73;62.09;101891.69;5033685;28;20041;-56
2023/04/26 01:24:49;;;;;;;3.50;1.60;;;;;;;13.73;62.01;101894.38;5030858;28;20099;-56
2023/04/26 01:27:15;;;;;;;2.65;1.90;;;;;;;13.72;62.33;101885.50;5029573;28;20034;-56
2023/04/26 01:29:41;;;;;;;2.67;1.77;;;;;;;13.71;62.05;101890.94;5028282;28;20071;-56
2023/04/26 01:32:06;;;;;;;2.08;1.50;;;;;;;13.71;62.10;101896.28;5033533;28;20104;-56
2023/04/26 01:34:33;;;;;;;2.75;1.63;;;;;;;13.70;62.19;101895.44;5030218;28;20041;-56
2023/04/26 01:36:59;;;;;;;2.90;1.73;;;;;;;13.71;62.34;101901.63;5028709;28;20121;-56
2023/04/26 01:39:25;;;;;;;1.95;1.60;;;;;;;13.69;61.98;101899.94;5028925;28;20040;-56
2023/04/26 01:41:50;;;;;;;3.08;1.67;;;;;;;13.69;62.24;101891.91;5027179;28;20033;-56
2023/04/26 01:44:16;;;;;;;2.92;1.63;;;;;;;13.69;62.34;101899.06;5028579;28;20036;-56
2023/04/26 01:46:41;;;;;;;2.95;2.08;;;;;;;13.69;62.05;101902.59;5010212;28;20033;-56
2023/04/26 01:49:06;;;;;;;3.70;1.85;;;;;;;13.69;62.31;101899.94;5028940;28;20029;-56
2023/04/26 01:51:33;;;;;;;3.05;1.83;;;;;;;13.68;61.97;101900.88;5026787;28;20095;-56
2023/04/26 01:53:58;;;;;;;2.70;1.33;;;;;;;13.67;62.29;101900.97;5028924;28;20042;-56
2023/04/26 01:56:24;;;;;;;2.45;1.70;;;;;;;13.67;62.11;101892.97;5028898;28;20049;-56
2023/04/26 01:58:49;;;;;;;2.72;1.70;;;;;;;13.66;62.18;101900.09;5027635;28;20034;-56
2023/04/26 02:01:15;;;;;;;1.88;1.50;;;;;;;13.66;61.88;101894.75;5009230;28;20030;-56
2023/04/26 02:03:40;;;;;;;2.25;1.90;;;;;;;13.65;62.06;101898.41;5026857;28;20046;-56
2023/04/26 02:06:06;;;;;;;1.83;1.55;;;;;;;13.66;62.14;101896.56;5039356;28;20033;-56
2023/04/26 02:08:31;;;;;;;2.92;1.70;;;;;;;13.65;62.37;101903.75;5021297;28;20033;-56
2023/04/26 02:10:57;;;;;;;2.70;1.67;;;;;;;13.64;62.25;101904.69;5026976;28;20078;-56
2023/04/26 02:13:22;;;;;;;2.67;1.80;;;;;;;13.65;62.14;101905.53;5028021;28;20053;-56
2023/04/26 02:15:49;;;;;;;4.22;2.10;;;;;;;13.63;62.29;101905.66;5028242;28;20038;-56
2023/04/26 02:18:14;;;;;;;5.22;1.90;;;;;;;13.64;61.80;101895.81;5028010;28;20382;-56
2023/04/26 02:20:44;;;;;;;1.65;1.52;;;;;;;13.63;61.80;101894.06;5028361;28;20030;-56
2023/04/26 02:23:10;;;;;;;1.52;1.42;;;;;;;13.62;62.03;101893.22;5027665;28;20037;-57
2023/04/26 02:25:36;;;;;;;1.90;1.67;;;;;;;13.62;62.16;101895.03;5040324;28;20375;-56
2023/04/26 02:28:02;;;;;;;3.80;2.17;;;;;;;13.62;62.13;101895.88;5027480;28;20038;-56
2023/04/26 02:30:27;;;;;;;2.90;1.58;;;;;;;13.62;61.88;101892.34;5028195;28;20035;-56
2023/04/26 02:32:53;;;;;;;2.15;1.48;;;;;;;13.61;61.82;101887.94;5016195;28;20068;-56
2023/04/26 02:35:19;;;;;;;2.15;1.60;;;;;;;13.60;61.95;101889.78;5027948;28;20042;-56
2023/04/26 02:37:47;;;;;;;2.95;1.77;;;;;;;13.61;62.07;101888.84;5026237;28;20092;-56
2023/04/26 02:40:13;;;;;;;1.65;1.55;;;;;;;13.60;61.98;101884.41;5025842;28;20026;-57
2023/04/26 02:42:39;;;;;;;1.60;1.50;;;;;;;13.60;61.97;101888.91;5025916;28;20028;-56
2023/04/26 02:45:05;;;;;;;2.40;1.75;;;;;;;13.59;61.69;101888.03;5025349;28;20034;-56
2023/04/26 02:47:31;;;;;;;2.67;1.80;;;;;;;13.59;61.69;101885.34;5028003;28;20086;-56
2023/04/26 02:49:56;;;;;;;2.45;1.95;;;;;;;13.59;61.79;101881.81;5026972;28;20025;-56
2023/04/26 02:52:22;;;;;;;4.05;1.55;;;;;;;13.58;61.84;101886.31;5027429;28;20504;-56
2023/04/26 02:54:47;;;;;;;1.90;1.63;;;;;;;13.59;61.74;101889.84;5010113;28;20044;-56
2023/04/26 02:57:12;;;;;;;1.40;1.30;;;;;;;13.57;62.22;101879.25;5026875;28;20036;-56
2023/04/26 02:59:38;;;;;;;2.38;1.60;;;;;;;13.57;61.94;101884.59;5028030;28;20039;-56
2023/04/26 03:02:03;;;;;;;2.67;2.13;;;;;;;13.57;62.02;101881.91;5029979;28;20082;-56
2023/04/26 03:04:33;;;;;;;3.47;2.08;;;;;;;13.56;61.89;101877.53;5033022;28;20080;-56
2023/04/26 03:06:58;;;;;;;3.55;1.70;;;;;;;13.56;62.14;101882.88;5027479;28;20061;-56
2023/04/26 03:09:23;;;;;;;2.63;1.80;;;;;;;13.55;61.96;101870.44;5026728;28;20062;-56
2023/04/26 03:11:49;;;;;;;2.42;1.70;;;;;;;13.56;61.95;101868.66;5026901;28;20057;-56
2023/04/26 03:14:14;;;;;;;2.72;1.58;;;;;;;13.54;61.77;101868.75;5026221;28;20483;-56
2023/04/26 03:16:41;;;;;;;3.05;1.50;;;;;;;13.54;61.88;101879.44;5027603;28;20028;-56
2023/04/26 03:19:07;;;;;;;1.98;1.48;;;;;;;13.54;61.48;101867.88;5026675;28;20044;-56
2023/04/26 03:21:32;;;;;;;2.33;1.77;;;;;;;13.53;61.47;101875.03;5026811;28;20422;-56
2023/04/26 03:23:57;;;;;;;4.10;1.67;;;;;;;13.53;61.58;101867.00;5027248;28;20040;-56
2023/04/26 03:26:23;;;;;;;2.55;1.60;;;;;;;13.53;61.74;101872.34;5028185;28;20076;-56
2023/04/26 03:28:48;;;;;;;1.90;1.58;;;;;;;13.52;61.51;101862.63;5026831;28;20120;-56
2023/04/26 03:31:13;;;;;;;2.50;1.55;;;;;;;13.52;61.85;101865.28;5026926;28;20498;-56
2023/04/26 03:33:39;;;;;;;2.35;1.75;;;;;;;13.51;61.56;101863.56;5026889;28;20082;-56
2023/04/26 03:36:05;;;;;;;2.63;1.50;;;;;;;13.52;61.75;101872.44;5030436;28;20065;-56
2023/04/26 03:38:30;;;;;;;2.00;1.60;;;;;;;13.50;61.58;101859.19;5030187;28;20071;-56
2023/04/26 03:40:55;;;;;;;1.92;1.50;;;;;;;13.50;61.35;101864.53;5026073;28;20602;-56
2023/04/26 03:43:21;;;;;;;1.98;1.80;;;;;;;13.51;61.64;101860.03;5025677;28;20480;-56
2023/04/26 03:45:48;;;;;;;2.63;1.80;;;;;;;13.49;61.51;101860.13;5026121;28;20120;-56
2023/04/26 03:48:13;;;;;;;2.00;1.40;;;;;;;13.50;61.33;101864.53;5026867;28;20159;-56
2023/04/26 03:50:38;;;;;;;2.78;1.65;;;;;;;13.49;61.51;101866.31;5024968;28;20121;-56
2023/04/26 03:53:04;;;;;;;1.70;1.60;;;;;;;13.49;61.29;101865.47;5026187;28;20041;-56
2023/04/26 03:55:29;;;;;;;1.95;1.50;;;;;;;13.48;61.44;101861.09;5025425;28;20041;-56
2023/04/26 03:57:54;;;;;;;2.88;1.85;;;;;;;13.47;61.43;101867.38;5025935;28;20065;-56
2023/04/26 04:00:20;;;;;;;1.90;1.70;;;;;;;13.47;61.41;101868.22;5032321;28;20029;-56
2023/04/26 04:02:45;;;;;;;1.45;1.35;;;;;;;13.47;61.35;101867.38;5026149;28;20094;-56
2023/04/26 04:05:11;;;;;;;3.20;1.90;;;;;;;13.47;61.52;101867.38;5032893;28;20056;-56
2023/04/26 04:07:36;;;;;;;1.70;1.60;;;;;;;13.47;61.68;101870.06;5023026;28;20487;-56
2023/04/26 04:10:02;;;;;;;2.85;1.45;;;;;;;13.46;61.52;101862.97;5028798;28;20029;-56
2023/04/26 04:12:27;;;;;;;2.47;1.38;;;;;;;13.45;61.07;101867.47;5026321;28;20054;-56
2023/04/26 04:14:53;;;;;;;2.65;1.60;;;;;;;13.44;60.98;101871.09;5025275;28;20041;-56
2023/04/26 04:17:18;;;;;;;1.73;1.50;;;;;;;13.45;61.27;101864.78;5026002;28;20041;-56
2023/04/26 04:19:44;;;;;;;2.20;1.42;;;;;;;13.44;61.40;101867.53;5025589;28;20116;-56
2023/04/26 04:22:10;;;;;;;2.13;1.45;;;;;;;13.44;61.14;101867.53;5026206;28;20040;-56
2023/04/26 04:24:36;;;;;;;1.70;1.48;;;;;;;13.43;61.22;101863.16;5026441;28;20382;-56
2023/04/26 04:27:02;;;;;;;2.25;1.48;;;;;;;13.43;61.42;101868.53;5024378;28;20037;-56
2023/04/26 04:29:27;;;;;;;2.67;1.50;;;;;;;13.42;61.22;101869.47;5022236;28;20029;-56
2023/04/26 04:31:53;;;;;;;1.80;1.50;;;;;;;13.42;61.23;101870.34;5024129;28;20056;-56
2023/04/26 04:34:18;;;;;;;1.65;1.35;;;;;;;13.42;60.94;101869.47;5025732;28;20030;-56
2023/04/26 04:36:44;;;;;;;1.50;1.40;;;;;;;13.42;60.97;101874.81;5025637;28;20045;-56
2023/04/26 04:39:14;;;;;;;1.60;1.50;;;;;;;13.41;61.33;101867.75;5024559;28;20030;-56
2023/04/26 04:41:46;;;;;;;4.93;1.53;;;;;;;13.41;61.26;101873.94;5024732;28;20030;-56
2023/04/26 04:44:14;;;;;;;1.63;1.35;;;;;;;13.41;60.89;101875.78;5025478;28;20087;-56
2023/04/26 04:46:40;;;;;;;1.40;1.30;;;;;;;13.40;61.32;101876.72;5025901;28;20545;-56
2023/04/26 04:49:08;;;;;;;2.03;1.40;;;;;;;13.40;61.32;101882.06;5026165;28;20033;-56
2023/04/26 04:51:34;;;;;;;1.50;1.30;;;;;;;13.39;60.76;101878.53;5025613;28;20033;-56
2023/04/26 04:54:10;;;;;;;1.55;1.38;;;;;;;13.39;61.10;101883.03;5028694;28;20395;-56
2023/04/26 04:56:36;;;;;;;1.52;1.40;;;;;;;13.38;61.04;101889.31;5024955;28;20029;-56
2023/04/26 04:59:01;;;;;;;2.42;1.60;;;;;;;13.38;61.03;101892.84;5024043;28;20546;-56
2023/04/26 05:01:27;;;;;;;2.60;1.60;;;;;;;13.38;61.03;101886.66;5024445;28;20040;-56
2023/04/26 05:03:52;;;;;;;1.98;1.60;;;;;;;13.38;61.18;101895.53;5031673;28;20107;-56
2023/04/26 05:06:17;;;;;;;1.45;1.30;;;;;;;13.39;60.95;101896.41;5029369;28;20032;-56
2023/04/26 05:08:43;;;;;;;1.83;1.50;;;;;;;13.37;60.63;101893.81;5025035;28;20042;-56
2023/04/26 05:11:08;;;;;;;2.28;1.90;;;;;;;13.38;61.10;101889.31;5025291;28;20046;-56
2023/04/26 05:13:33;;;;;;;2.90;1.55;;;;;;;13.37;60.88;101895.63;5027823;28;20026;-56
2023/04/26 05:15:59;;;;;;;1.48;1.35;;;;;;;13.37;60.85;101893.81;5024807;28;20040;-56
2023/04/26 05:18:24;;;;;;;1.40;1.30;;;;;;;13.36;60.59;101894.75;5037570;28;20034;-56
2023/04/26 05:20:50;;;;;;;3.60;1.60;;;;;;;13.36;60.55;101896.56;5028588;28;20879;-57
2023/04/26 05:23:15;;;;;;;1.52;1.38;;;;;;;13.36;60.65;101902.78;5019010;28;20037;-56
2023/04/26 05:25:40;;;;;;;3.67;1.30;;;;;;;13.36;61.01;101899.25;5027029;28;20083;-56
2023/04/26 05:28:11;;;;;;;1.90;1.73;;;;;;;13.36;60.58;101897.44;5024824;28;20595;-56
2023/04/26 05:30:37;;;;;;;2.13;1.50;;;;;;;13.35;60.80;101898.41;5026035;28;20037;-56
2023/04/26 05:33:02;;;;;;;3.25;1.50;;;;;;;13.35;60.86;101906.44;5019211;28;20040;-56
2023/04/26 05:35:27;;;;;;;2.75;1.50;;;;;;;13.35;61.00;101893.06;5022231;28;20033;-56
2023/04/26 05:37:53;;;;;;;1.30;1.20;;;;;;;13.34;60.86;101895.81;5024012;28;20037;-56
2023/04/26 05:40:18;;;;;;;1.80;1.30;;;;;;;13.34;61.32;101893.13;5021770;28;20025;-56
2023/04/26 05:42:44;;;;;;;1.58;1.48;;;;;;;13.34;61.18;101902.00;5025769;28;20107;-56
2023/04/26 05:45:09;;;;;;;2.15;1.50;;;;;;;13.34;60.89;101909.19;5025257;28;20096;-56
2023/04/26 05:47:35;;;;;;;1.50;1.40;;;;;;;13.33;60.61;101902.97;5009643;28;20394;-56
2023/04/26 05:50:01;;;;;;;1.58;1.35;;;;;;;13.33;61.22;101908.31;5025942;28;20029;-56
2023/04/26 05:52:27;;;;;;;2.03;1.42;;;;;;;13.32;61.12;101909.25;5023911;28;20112;-56
2023/04/26 05:54:52;;;;;;;1.75;1.52;;;;;;;13.32;61.20;101905.75;5024457;28;20037;-56
2023/04/26 05:57:18;;;;;;;1.63;1.40;;;;;;;13.33;60.87;101904.78;5022574;28;20531;-56
2023/04/26 05:59:43;;;;;;;2.65;1.60;;;;;;;13.32;61.33;101900.38;5023826;28;20046;-57
2023/04/26 06:02:09;;;;;;;1.70;1.30;;;;;;;13.32;61.30;101906.59;5018207;28;20017;-56
2023/04/26 06:04:34;;;;;;;2.33;1.65;;;;;;;13.33;61.15;101902.09;5032479;28;20081;-56
2023/04/26 06:07:00;;;;;;;2.10;1.92;;;;;;;13.33;61.04;101902.09;5028125;28;20063;-56
2023/04/26 06:09:26;;;;;;;4.13;2.28;;;;;;;13.32;61.12;101908.41;5017174;28;20037;-56
2023/04/26 06:11:51;;;;;;;4.35;2.25;;;;;;;13.32;61.10;101908.41;5023125;28;20033;-56
2023/04/26 06:14:16;;;;;;;4.47;2.30;;;;;;;13.32;60.51;101903.06;5025879;28;20110;-56
2023/04/26 06:16:42;;;;;;;3.35;1.90;;;;;;;13.30;60.58;101904.00;5028402;28;20374;-56
2023/04/26 06:19:07;;;;;;;2.55;1.70;;;;;;;13.30;60.48;101912.03;5030035;28;20041;-56
2023/04/26 06:21:32;;;;;;;2.13;1.80;;;;;;;13.30;60.59;101909.34;5022641;28;20052;-56
2023/04/26 06:23:58;;;;;;;2.20;2.00;;;;;;;13.31;60.46;101918.25;5030125;28;20033;-56
2023/04/26 06:26:23;;;;;;;2.97;2.30;;;;;;;13.30;59.93;101921.88;5028737;28;20394;-56
2023/04/26 06:28:48;;;;;;;4.50;2.40;;;;;;;13.30;60.08;101920.03;5025534;28;20037;-56
2023/04/26 06:31:14;;;;;;;4.75;2.42;;;;;;;13.30;59.83;101922.72;5025705;28;20033;-56
2023/04/26 06:33:39;;;;;;;6.38;2.65;;;;;;;13.29;59.94;101918.31;5020108;28;20029;-56
2023/04/26 06:36:05;;;;;;;5.68;2.75;;;;;;;13.28;59.89;101921.91;5020233;28;20025;-56
2023/04/26 06:38:30;;;;;;;4.72;2.75;;;;;;;13.28;59.74;101932.63;5025603;28;20084;-56
2023/04/26 06:40:55;;;;;;;5.10;3.15;;;;;;;13.29;59.47;101933.50;5005797;28;20116;-56
2023/04/26 06:43:21;;;;;;;4.57;2.58;;;;;;;13.29;60.10;101933.50;5023359;28;20038;-56
2023/04/26 06:45:47;;;;;;;3.78;2.40;;;;;;;13.27;59.76;101936.25;5018573;28;20026;-56
2023/04/26 06:48:12;;;;;;;5.47;2.58;;;;;;;13.27;59.53;101935.41;5019687;28;20042;-56
2023/04/26 06:50:41;;;;;;;4.50;2.75;;;;;;;13.27;59.69;101941.63;5024189;28;20033;-56
2023/04/26 06:53:07;;;;;;;4.90;3.75;;;;;;;13.26;59.56;101937.19;5011216;28;20037;-56
2023/04/26 06:55:32;;;;;;;5.90;3.38;;;;;;;13.27;59.33;101938.09;5024502;28;20029;-56
2023/04/26 06:57:58;;;;;;;4.85;3.55;;;;;;;13.26;59.67;101939.88;5025697;28;20546;-56
2023/04/26 07:00:23;;;;;;;5.57;3.75;;;;;;;13.25;59.19;101940.84;5024785;28;20091;-57
2023/04/26 07:02:49;;;;;;;4.72;2.90;;;;;;;13.27;59.35;101940.75;5022868;28;20052;-56
2023/04/26 07:05:16;;;;;;;3.88;3.08;;;;;;;13.26;59.28;101939.88;5021650;28;20089;-56
2023/04/26 07:07:41;;;;;;;4.90;3.17;;;;;;;13.26;59.58;101945.22;5020441;28;20042;-56
2023/04/26 07:10:08;;;;;;;5.57;3.70;;;;;;;13.26;59.33;101939.03;5019082;28;20036;-56
2023/04/26 07:12:34;;;;;;;7.47;4.00;;;;;;;13.26;59.79;101939.88;5022398;28;20053;-56
2023/04/26 07:15:00;;;;;;;4.82;3.35;;;;;;;13.26;59.60;101941.69;5019667;28;20061;-56
2023/04/26 07:17:26;;;;;;;7.97;3.80;;;;;;;13.26;59.82;101937.19;5025529;28;20041;-57
2023/04/26 07:19:51;;;;;;;8.35;3.72;;;;;;;13.25;59.88;101943.50;5026031;28;20033;-56
2023/04/26 07:22:17;;;;;;;4.13;3.10;;;;;;;13.26;59.70;101945.22;5023321;28;20472;-56
2023/04/26 07:24:42;;;;;;;4.07;2.90;;;;;;;13.26;59.95;101950.56;5024833;28;20034;-56
2023/04/26 07:27:08;;;;;;;8.32;3.47;;;;;;;13.27;59.44;101943.44;5021743;28;20025;-56
2023/04/26 07:29:34;;;;;;;6.38;3.78;;;;;;;13.26;59.70;101939.88;5025236;28;20037;-56
2023/04/26 07:31:59;;;;;;;7.93;4.00;;;;;;;13.27;59.82;101944.28;5021461;28;20030;-56
2023/04/26 07:34:25;;;;;;;6.47;2.75;;;;;;;13.27;59.68;101936.25;5023403;28;20030;-56
2023/04/26 07:36:50;;;;;;;4.85;3.35;;;;;;;13.28;59.61;101937.97;5021053;28;20498;-56
2023/04/26 07:39:15;;;;;;;4.68;3.22;;;;;;;13.29;59.31;101938.84;5018655;28;20736;-56
2023/04/26 07:41:41;;;;;;;5.57;2.88;;;;;;;13.29;59.59;101938.84;5023060;28;20025;-56
2023/04/26 07:44:06;;;;;;;8.27;2.80;;;;;;;13.29;59.17;101934.34;5029586;28;20067;-56
2023/04/26 07:46:33;;;;;;;5.95;3.42;;;;;;;13.28;59.44;101929.94;5004148;28;20384;-56
2023/04/26 07:48:59;;;;;;;9.07;3.38;;;;;;;13.28;59.54;101932.63;5025577;28;20042;-57
2023/04/26 07:51:25;;;;;;;5.80;2.70;;;;;;;13.29;58.74;101931.69;5024810;28;20029;-56
2023/04/26 07:53:50;;;;;;;6.03;3.13;;;;;;;13.29;58.85;101936.19;5012297;28;20033;-56
2023/04/26 07:56:16;;;;;;;4.97;2.60;;;;;;;13.30;59.22;101929.91;5028060;28;20053;-58
2023/04/26 07:58:41;;;;;;;8.20;2.90;;;;;;;13.30;58.92;101929.91;5019715;28;20037;-56
2023/04/26 08:01:07;;;;;;;6.60;2.83;;;;;;;13.31;58.80;101936.97;5010816;28;20458;-56
2023/04/26 08:03:33;;;;;;;8.55;3.00;;;;;;;13.31;58.59;101936.97;5026263;28;20065;-56
2023/04/26 08:05:58;;;;;;;6.38;2.83;;;;;;;13.34;59.09;101946.63;5029124;28;20033;-56
2023/04/26 08:08:27;;;;;;;5.60;2.95;;;;;;;13.37;59.21;101951.81;5023221;28;20034;-56
2023/04/26 08:10:53;;;;;;;5.47;2.72;;;;;;;13.37;59.76;101950.00;5011677;28;20061;-55
2023/04/26 08:13:18;;;;;;;10.70;2.95;;;;;;;13.41;59.81;101953.34;5018505;28;20084;-52
2023/04/26 08:15:44;;;;;;;7.15;2.70;;;;;;;13.43;59.77;101954.13;5020053;28;20037;-55
2023/04/26 08:18:09;;;;;;;6.78;2.70;;;;;;;13.44;59.57;101954.03;5007031;28;20061;-59
2023/04/26 08:20:35;;;;;;;7.57;2.50;;;;;;;13.47;60.22;101955.66;5011793;28;20478;-55
2023/04/26 08:23:00;;;;;;;4.95;2.72;;;;;;;13.51;60.42;101954.53;5027925;28;20515;-58
2023/04/26 08:25:26;;;;;;;4.80;3.20;;;;;;;13.51;60.20;101948.31;5030506;28;20104;-56
2023/04/26 08:27:51;;;;;;;6.70;2.60;;;;;;;13.49;59.64;101946.59;5022795;28;20040;-56
2023/04/26 08:30:17;;;;;;;10.23;2.47;;;;;;;13.50;59.23;101942.13;5020720;28;20021;-56
2023/04/26 08:32:44;;;;;;;7.60;2.40;;;;;;;13.50;59.30;101942.13;5015611;28;20067;-56
2023/04/26 08:35:10;;;;;;;4.60;2.45;;;;;;;13.49;59.36;101945.72;5018112;28;20026;-56
2023/04/26 08:37:36;;;;;;;4.93;2.22;;;;;;;13.49;59.38;101941.25;5019609;28;20422;-56
2023/04/26 08:40:02;;;;;;;4.10;2.05;;;;;;;13.49;59.44;101940.38;5017232;28;20048;-56
2023/04/26 08:42:29;;;;;;;2.88;1.58;;;;;;;13.49;59.48;101943.91;5020733;28;20411;-56
2023/04/26 08:44:55;;;;;;;3.00;2.20;;;;;;;13.49;58.73;101943.91;5018100;28;20377;-56
2023/04/26 08:47:34;;;;;;;2.88;1.88;;;;;;;13.50;59.41;101942.13;5019169;28;20030;-56
2023/04/26 08:50:02;;;;;;;3.90;2.25;;;;;;;13.47;58.89;101937.78;5014690;28;20026;-56
2023/04/26 08:52:30;;;;;;;5.00;1.73;;;;;;;13.47;59.06;101936.94;5019988;28;20036;-56
2023/04/26 08:54:57;;;;;;;7.13;2.20;;;;;;;13.46;59.00;101936.09;5019062;28;20022;-56
2023/04/26 08:57:23;;;;;;;3.78;1.65;;;;;;;13.47;59.12;101931.59;5001360;28;20029;-56
2023/04/26 08:59:50;;;;;;;3.50;1.55;;;;;;;13.46;58.95;101941.44;5025657;28;20037;-56
2023/04/26 09:02:18;;;;;;;3.60;1.80;;;;;;;13.46;58.88;101943.22;5024430;28;20472;-56
2023/04/26 09:04:45;;;;;;;5.80;1.90;;;;;;;13.46;58.99;101937.88;5019199;28;20045;-56
2023/04/26 09:07:18;;;;;;;3.83;1.73;;;;;;;13.47;58.60;101942.28;5020893;28;20034;-56
2023/04/26 09:09:47;;;;;;;3.53;1.55;;;;;;;13.46;58.65;101932.53;5023462;28;20025;-56
2023/04/26 09:12:13;;;;;;;2.60;1.50;;;;;;;13.45;58.75;101939.69;5015646;28;20024;-56
2023/04/26 09:14:38;;;;;;;3.05;1.50;;;;;;;13.47;58.49;101932.44;5020321;28;20030;-56
2023/04/26 09:17:04;;;;;;;3.08;1.67;;;;;;;13.46;58.57;101929.84;5019666;28;20060;-56
2023/04/26 09:19:37;;;;;;;4.55;1.60;;;;;;;13.46;58.48;101930.72;5025461;28;20033;-56
2023/04/26 09:22:03;;;;;;;3.17;1.67;;;;;;;13.47;58.64;101926.25;5028613;28;20056;-56
2023/04/26 09:24:46;;;;;;;4.32;1.55;;;;;;;13.48;58.57;101930.66;5024180;28;20436;-56
2023/04/26 09:27:12;;;;;;;4.43;1.73;;;;;;;13.48;58.40;101922.63;5018421;28;20142;-56
2023/04/26 09:29:37;;;;;;;2.30;1.52;;;;;;;13.48;58.73;101926.16;5028627;28;20106;-56
2023/04/26 09:32:03;;;;;;;3.92;1.52;;;;;;;13.47;58.56;101927.09;5030930;28;20045;-56
2023/04/26 09:34:42;;;;;;;4.93;1.63;;;;;;;13.48;58.36;101925.31;5028805;28;20153;-56
2023/04/26 09:37:11;;;;;;;3.42;1.50;;;;;;;13.47;58.49;101931.59;5012640;28;20092;-56
2023/04/26 09:39:39;;;;;;;3.63;1.70;;;;;;;13.48;58.06;101933.31;5027299;28;20055;-56
2023/04/26 09:42:10;;;;;;;4.38;1.70;;;;;;;13.47;58.19;101931.59;5007816;28;20036;-56
2023/04/26 09:44:36;;;;;;;6.88;1.55;;;;;;;13.47;58.43;101942.28;5027220;28;20033;-56
2023/04/26 09:47:04;;;;;;;4.78;1.73;;;;;;;13.47;58.06;101947.63;5024916;28;20523;-56
2023/04/26 09:49:50;;;;;;;4.05;1.67;;;;;;;13.47;58.23;101937.78;5024263;28;20030;-56
2023/04/26 09:52:19;;;;;;;7.50;1.77;;;;;;;13.47;58.03;101936.94;5031642;28;20037;-56
2023/04/26 09:54:47;;;;;;;5.00;1.80;;;;;;;13.47;58.05;101932.44;5028754;28;20037;-56
2023/04/26 09:57:15;;;;;;;2.60;1.27;;;;;;;13.45;57.53;101936.16;5007336;28;20052;-56
2023/04/26 09:59:43;;;;;;;5.93;1.80;;;;;;;13.45;57.48;101930.81;5026234;28;20491;-56
2023/04/26 10:02:14;;;;;;;2.35;1.35;;;;;;;13.45;57.47;101925.47;5024102;28;20067;-56
2023/04/26 10:04:42;;;;;;;4.18;1.55;;;;;;;13.43;57.56;101930.91;5025742;28;20573;-56
2023/04/26 10:07:08;;;;;;;4.57;1.45;;;;;;;13.44;57.04;101931.75;5024296;28;20424;-56
2023/04/26 10:09:34;;;;;;;3.95;1.70;;;;;;;13.44;56.90;101929.06;5023385;28;20113;-56
2023/04/26 10:12:00;;;;;;;2.90;1.45;;;;;;;13.44;56.85;101926.41;5016131;28;20084;-56
2023/04/26 10:14:26;;;;;;;3.78;1.75;;;;;;;13.43;57.13;101933.56;5024577;28;20413;-55
2023/04/26 10:16:53;;;;;;;2.00;1.40;;;;;;;13.44;57.10;101934.44;5024825;28;20017;-56
2023/04/26 10:19:20;;;;;;;6.97;1.92;;;;;;;13.42;56.89;101939.91;5026398;28;20037;-56
2023/04/26 10:21:50;;;;;;;2.63;1.60;;;;;;;13.42;57.02;101939.91;5023866;28;20025;-56
2023/04/26 10:24:16;;;;;;;2.42;1.63;;;;;;;13.42;56.78;101931.88;5027690;28;20150;-56
2023/04/26 10:26:56;;;;;;;6.50;1.77;;;;;;;13.44;57.19;101932.63;5025759;28;20120;-56
2023/04/26 10:29:26;;;;;;;2.88;1.40;;;;;;;13.44;56.94;101931.75;5023970;28;20139;-56
2023/04/26 10:32:01;;;;;;;1.35;1.23;;;;;;;13.43;57.12;101930.91;5027753;28;20040;-56
2023/04/26 10:34:27;;;;;;;2.78;1.45;;;;;;;13.44;56.55;101923.72;5021649;28;20029;-56
2023/04/26 10:37:09;;;;;;;6.70;1.63;;;;;;;13.46;57.26;101924.50;5027369;28;20065;-56
2023/04/26 10:39:38;;;;;;;;;;;;;;;13.52;57.26;101923.28;5025728;28;20030;-56
2023/04/26 10:42:23;;;;;;;1.95;1.38;;;;;;;13.47;56.67;101919.06;5023694;28;19944;-56
2023/04/26 10:44:54;;;;;;;3.17;1.67;;;;;;;13.46;56.65;101919.16;5022432;28;20030;-56
2023/04/26 10:47:30;;;;;;;3.25;1.40;;;;;;;13.46;56.38;101916.47;5024912;28;20044;-56
2023/04/26 10:50:05;;;;;;;2.60;1.30;;;;;;;13.46;56.55;101914.69;5026557;28;20036;-56
2023/04/26 10:52:30;;;;;;;3.10;1.23;;;;;;;13.46;56.58;101914.69;5019774;28;20100;-56
2023/04/26 10:54:57;;;;;;;4.00;1.50;;;;;;;13.46;56.44;101909.34;5029090;28;20038;-56
2023/04/26 10:57:47;;;;;;;5.65;2.08;;;;;;;13.48;56.94;101914.59;5032174;28;20349;-56
2023/04/26 11:00:20;;;;;;;2.90;1.17;;;;;;;13.48;56.76;101917.28;5013775;28;20099;-56
2023/04/26 11:02:45;;;;;;;4.57;1.50;;;;;;;13.47;56.40;101905.69;5028259;28;20041;-56
2023/04/26 11:05:35;;;;;;;3.22;1.50;;;;;;;13.48;57.05;101910.09;5026868;28;20379;-56
2023/04/26 11:08:27;;;;;;;4.97;1.60;;;;;;;13.51;56.99;101911.72;5026944;28;20038;-55
2023/04/26 11:11:08;;;;;;;2.78;1.52;;;;;;;13.51;56.82;101913.53;5023512;28;20053;-56
2023/04/26 11:13:39;;;;;;;1.67;1.58;;;;;;;13.51;56.64;101908.19;5027385;28;20045;-56
2023/04/26 11:16:06;;;;;;;3.95;1.67;;;;;;;13.50;56.69;101899.31;5027651;28;20035;-56
2023/04/26 11:18:33;;;;;;;3.28;1.48;;;;;;;13.51;56.61;101902.84;5026764;28;20037;-56
2023/04/26 11:20:58;;;;;;;3.25;1.70;;;;;;;13.50;56.81;101899.31;5027757;28;20128;-56
2023/04/26 11:23:28;;;;;;;1.67;1.45;;;;;;;13.51;56.72;101893.00;5027685;28;20109;-56